sensor_id;sensor_type;location;lat;lon;timestamp;P1;durP1;ratioP1;P2;durP2;ratioP2
20511;SDS011;10414;52.074;5.126;2022-11-28T00:01:01;14.70;;;7.72;;
20511;SDS011;10414;52.074;5.126;2022-11-28T00:03:29;18.23;;;7.05;;
20511;SDS011;10414;52.074;5.126;2022-11-28T00:05:56;15.43;;;7.38;;
20511;SDS011;10414;52.074;5.126;2022-11-28T00:08:28;14.55;;;7.80;;
20511;SDS011;10414;52.074;5.126;2022-11-28T00:10:55;15.65;;;7.18;;
20511;SDS011;10414;52.074;5.126;2022-11-28T00:13:22;15.77;;;7.80;;
20511;SDS011;10414;52.074;5.126;2022-11-28T00:15:54;17.30;;;7.57;;
20511;SDS011;10414;52.074;5.126;2022-11-28T00:18:25;13.57;;;7.70;;
20511;SDS011;10414;52.074;5.126;2022-11-28T00:20:57;15.15;;;7.32;;
20511;SDS011;10414;52.074;5.126;2022-11-28T00:23:24;15.50;;;7.68;;
20511;SDS011;10414;52.074;5.126;2022-11-28T00:25:55;19.73;;;8.40;;
20511;SDS011;10414;52.074;5.126;2022-11-28T00:28:22;16.67;;;7.82;;
20511;SDS011;10414;52.074;5.126;2022-11-28T00:30:49;16.35;;;7.50;;
20511;SDS011;10414;52.074;5.126;2022-11-28T00:33:25;14.13;;;7.53;;
20511;SDS011;10414;52.074;5.126;2022-11-28T00:35:56;15.48;;;8.23;;
20511;SDS011;10414;52.074;5.126;2022-11-28T00:38:24;16.00;;;8.35;;
20511;SDS011;10414;52.074;5.126;2022-11-28T00:40:58;15.15;;;8.00;;
20511;SDS011;10414;52.074;5.126;2022-11-28T00:45:55;17.98;;;9.07;;
20511;SDS011;10414;52.074;5.126;2022-11-28T00:48:23;15.73;;;8.48;;
20511;SDS011;10414;52.074;5.126;2022-11-28T00:50:54;19.70;;;8.70;;
20511;SDS011;10414;52.074;5.126;2022-11-28T00:53:26;17.67;;;8.70;;
20511;SDS011;10414;52.074;5.126;2022-11-28T00:55:52;17.30;;;8.90;;
20511;SDS011;10414;52.074;5.126;2022-11-28T00:58:19;22.13;;;10.13;;
20511;SDS011;10414;52.074;5.126;2022-11-28T01:00:52;21.23;;;10.32;;
20511;SDS011;10414;52.074;5.126;2022-11-28T01:03:19;17.90;;;10.00;;
20511;SDS011;10414;52.074;5.126;2022-11-28T01:05:48;21.20;;;9.57;;
20511;SDS011;10414;52.074;5.126;2022-11-28T01:08:15;20.52;;;9.75;;
20511;SDS011;10414;52.074;5.126;2022-11-28T01:10:43;21.42;;;10.85;;
20511;SDS011;10414;52.074;5.126;2022-11-28T01:13:13;15.90;;;9.93;;
20511;SDS011;10414;52.074;5.126;2022-11-28T01:15:43;21.43;;;10.87;;
20511;SDS011;10414;52.074;5.126;2022-11-28T01:18:12;18.67;;;10.02;;
20511;SDS011;10414;52.074;5.126;2022-11-28T01:20:42;18.52;;;11.20;;
20511;SDS011;10414;52.074;5.126;2022-11-28T01:23:11;20.80;;;10.65;;
20511;SDS011;10414;52.074;5.126;2022-11-28T01:28:10;19.35;;;9.88;;
20511;SDS011;10414;52.074;5.126;2022-11-28T01:30:37;18.10;;;10.40;;
20511;SDS011;10414;52.074;5.126;2022-11-28T01:33:09;16.80;;;9.73;;
20511;SDS011;10414;52.074;5.126;2022-11-28T01:35:35;19.25;;;10.48;;
20511;SDS011;10414;52.074;5.126;2022-11-28T01:38:04;17.25;;;10.27;;
20511;SDS011;10414;52.074;5.126;2022-11-28T01:40:32;18.10;;;9.95;;
20511;SDS011;10414;52.074;5.126;2022-11-28T01:42:59;17.95;;;10.48;;
20511;SDS011;10414;52.074;5.126;2022-11-28T01:45:27;16.88;;;9.45;;
20511;SDS011;10414;52.074;5.126;2022-11-28T01:47:59;18.23;;;10.25;;
20511;SDS011;10414;52.074;5.126;2022-11-28T01:50:28;15.95;;;9.60;;
20511;SDS011;10414;52.074;5.126;2022-11-28T01:52:58;14.77;;;8.98;;
20511;SDS011;10414;52.074;5.126;2022-11-28T01:55:29;16.88;;;9.60;;
20511;SDS011;10414;52.074;5.126;2022-11-28T01:58:01;15.95;;;9.77;;
20511;SDS011;10414;52.074;5.126;2022-11-28T02:00:28;17.15;;;9.45;;
20511;SDS011;10414;52.074;5.126;2022-11-28T02:02:57;16.63;;;10.13;;
20511;SDS011;10414;52.074;5.126;2022-11-28T02:05:27;16.67;;;10.07;;
20511;SDS011;10414;52.074;5.126;2022-11-28T02:07:54;14.40;;;9.32;;
20511;SDS011;10414;52.074;5.126;2022-11-28T02:10:21;15.90;;;9.82;;
20511;SDS011;10414;52.074;5.126;2022-11-28T02:13:05;15.80;;;9.88;;
20511;SDS011;10414;52.074;5.126;2022-11-28T02:15:53;15.13;;;9.30;;
20511;SDS011;10414;52.074;5.126;2022-11-28T02:18:39;17.58;;;9.23;;
20511;SDS011;10414;52.074;5.126;2022-11-28T02:21:21;14.18;;;9.02;;
20511;SDS011;10414;52.074;5.126;2022-11-28T02:27:29;14.55;;;8.82;;
20511;SDS011;10414;52.074;5.126;2022-11-28T02:30:20;16.30;;;9.10;;
20511;SDS011;10414;52.074;5.126;2022-11-28T02:33:04;14.15;;;8.77;;
20511;SDS011;10414;52.074;5.126;2022-11-28T02:35:41;16.30;;;9.23;;
20511;SDS011;10414;52.074;5.126;2022-11-28T02:38:19;15.95;;;9.13;;
20511;SDS011;10414;52.074;5.126;2022-11-28T02:41:05;14.35;;;9.18;;
20511;SDS011;10414;52.074;5.126;2022-11-28T02:43:41;16.15;;;10.13;;
20511;SDS011;10414;52.074;5.126;2022-11-28T02:46:19;17.58;;;9.48;;
20511;SDS011;10414;52.074;5.126;2022-11-28T02:48:52;15.18;;;9.13;;
20511;SDS011;10414;52.074;5.126;2022-11-28T02:51:25;17.55;;;10.25;;
20511;SDS011;10414;52.074;5.126;2022-11-28T02:53:57;16.80;;;9.85;;
20511;SDS011;10414;52.074;5.126;2022-11-28T02:56:26;16.25;;;9.02;;
20511;SDS011;10414;52.074;5.126;2022-11-28T02:58:59;15.82;;;9.30;;
20511;SDS011;10414;52.074;5.126;2022-11-28T03:01:26;17.73;;;10.83;;
20511;SDS011;10414;52.074;5.126;2022-11-28T03:04:08;17.38;;;10.30;;
20511;SDS011;10414;52.074;5.126;2022-11-28T03:06:47;19.58;;;10.30;;
20511;SDS011;10414;52.074;5.126;2022-11-28T03:09:25;21.73;;;11.02;;
20511;SDS011;10414;52.074;5.126;2022-11-28T03:12:07;19.13;;;10.45;;
20511;SDS011;10414;52.074;5.126;2022-11-28T03:14:45;20.08;;;10.88;;
20511;SDS011;10414;52.074;5.126;2022-11-28T03:17:20;22.67;;;11.13;;
20511;SDS011;10414;52.074;5.126;2022-11-28T03:19:56;19.70;;;11.00;;
20511;SDS011;10414;52.074;5.126;2022-11-28T03:22:33;20.58;;;12.00;;
20511;SDS011;10414;52.074;5.126;2022-11-28T03:25:07;21.65;;;12.00;;
20511;SDS011;10414;52.074;5.126;2022-11-28T03:27:45;20.90;;;11.40;;
20511;SDS011;10414;52.074;5.126;2022-11-28T03:30:19;22.20;;;11.88;;
20511;SDS011;10414;52.074;5.126;2022-11-28T03:32:50;22.80;;;13.40;;
20511;SDS011;10414;52.074;5.126;2022-11-28T03:35:21;23.40;;;11.63;;
20511;SDS011;10414;52.074;5.126;2022-11-28T03:37:54;23.33;;;12.63;;
20511;SDS011;10414;52.074;5.126;2022-11-28T03:40:27;21.58;;;11.60;;
20511;SDS011;10414;52.074;5.126;2022-11-28T03:43:10;21.48;;;11.93;;
20511;SDS011;10414;52.074;5.126;2022-11-28T03:45:42;22.88;;;12.02;;
20511;SDS011;10414;52.074;5.126;2022-11-28T03:48:15;26.38;;;13.02;;
20511;SDS011;10414;52.074;5.126;2022-11-28T03:50:49;20.83;;;12.05;;
20511;SDS011;10414;52.074;5.126;2022-11-28T03:53:24;23.77;;;13.27;;
20511;SDS011;10414;52.074;5.126;2022-11-28T03:56:07;19.58;;;11.52;;
20511;SDS011;10414;52.074;5.126;2022-11-28T03:58:40;24.83;;;12.30;;
20511;SDS011;10414;52.074;5.126;2022-11-28T04:01:13;24.13;;;13.27;;
20511;SDS011;10414;52.074;5.126;2022-11-28T04:03:50;20.42;;;11.40;;
20511;SDS011;10414;52.074;5.126;2022-11-28T04:06:25;23.67;;;12.75;;
20511;SDS011;10414;52.074;5.126;2022-11-28T04:08:56;22.27;;;12.45;;
20511;SDS011;10414;52.074;5.126;2022-11-28T04:11:28;25.90;;;13.02;;
20511;SDS011;10414;52.074;5.126;2022-11-28T04:13:59;23.83;;;12.73;;
20511;SDS011;10414;52.074;5.126;2022-11-28T04:16:33;22.13;;;12.13;;
20511;SDS011;10414;52.074;5.126;2022-11-28T04:19:05;23.70;;;12.60;;
20511;SDS011;10414;52.074;5.126;2022-11-28T04:21:40;21.30;;;11.95;;
20511;SDS011;10414;52.074;5.126;2022-11-28T04:24:12;22.15;;;12.00;;
20511;SDS011;10414;52.074;5.126;2022-11-28T04:26:46;22.23;;;11.45;;
20511;SDS011;10414;52.074;5.126;2022-11-28T04:29:19;22.30;;;11.50;;
20511;SDS011;10414;52.074;5.126;2022-11-28T04:31:48;19.92;;;10.70;;
20511;SDS011;10414;52.074;5.126;2022-11-28T04:34:23;19.65;;;10.85;;
20511;SDS011;10414;52.074;5.126;2022-11-28T04:36:54;21.50;;;11.45;;
20511;SDS011;10414;52.074;5.126;2022-11-28T04:39:24;20.98;;;10.77;;
20511;SDS011;10414;52.074;5.126;2022-11-28T04:41:54;20.23;;;11.02;;
20511;SDS011;10414;52.074;5.126;2022-11-28T04:44:24;20.65;;;10.65;;
20511;SDS011;10414;52.074;5.126;2022-11-28T04:46:58;19.95;;;10.48;;
20511;SDS011;10414;52.074;5.126;2022-11-28T04:49:29;22.13;;;11.27;;
20511;SDS011;10414;52.074;5.126;2022-11-28T04:52:00;20.15;;;10.13;;
20511;SDS011;10414;52.074;5.126;2022-11-28T04:54:34;20.20;;;11.75;;
20511;SDS011;10414;52.074;5.126;2022-11-28T04:57:08;19.83;;;10.23;;
20511;SDS011;10414;52.074;5.126;2022-11-28T04:59:41;18.52;;;10.68;;
20511;SDS011;10414;52.074;5.126;2022-11-28T05:02:09;21.42;;;11.40;;
20511;SDS011;10414;52.074;5.126;2022-11-28T05:04:39;20.90;;;11.75;;
20511;SDS011;10414;52.074;5.126;2022-11-28T05:07:12;22.40;;;10.88;;
20511;SDS011;10414;52.074;5.126;2022-11-28T05:09:39;19.17;;;10.63;;
20511;SDS011;10414;52.074;5.126;2022-11-28T05:12:06;20.17;;;10.38;;
20511;SDS011;10414;52.074;5.126;2022-11-28T05:14:34;21.13;;;11.02;;
20511;SDS011;10414;52.074;5.126;2022-11-28T05:17:00;23.77;;;10.73;;
20511;SDS011;10414;52.074;5.126;2022-11-28T05:19:29;20.30;;;11.63;;
20511;SDS011;10414;52.074;5.126;2022-11-28T05:21:57;22.92;;;12.20;;
20511;SDS011;10414;52.074;5.126;2022-11-28T05:24:30;22.40;;;12.30;;
20511;SDS011;10414;52.074;5.126;2022-11-28T05:26:57;21.73;;;11.70;;
20511;SDS011;10414;52.074;5.126;2022-11-28T05:29:24;28.77;;;12.80;;
20511;SDS011;10414;52.074;5.126;2022-11-28T05:31:50;22.50;;;11.93;;
20511;SDS011;10414;52.074;5.126;2022-11-28T05:34:23;21.38;;;12.05;;
20511;SDS011;10414;52.074;5.126;2022-11-28T05:36:50;23.27;;;12.20;;
20511;SDS011;10414;52.074;5.126;2022-11-28T05:39:16;24.88;;;12.10;;
20511;SDS011;10414;52.074;5.126;2022-11-28T05:41:48;24.30;;;12.10;;
20511;SDS011;10414;52.074;5.126;2022-11-28T05:44:14;23.70;;;12.60;;
20511;SDS011;10414;52.074;5.126;2022-11-28T05:46:44;25.08;;;12.73;;
20511;SDS011;10414;52.074;5.126;2022-11-28T05:49:11;23.17;;;12.32;;
20511;SDS011;10414;52.074;5.126;2022-11-28T05:51:38;25.20;;;13.40;;
20511;SDS011;10414;52.074;5.126;2022-11-28T05:54:05;25.08;;;13.02;;
20511;SDS011;10414;52.074;5.126;2022-11-28T05:56:31;23.05;;;12.52;;
20511;SDS011;10414;52.074;5.126;2022-11-28T05:59:00;26.55;;;12.82;;
20511;SDS011;10414;52.074;5.126;2022-11-28T06:01:27;28.15;;;13.15;;
20511;SDS011;10414;52.074;5.126;2022-11-28T06:03:54;25.95;;;12.85;;
20511;SDS011;10414;52.074;5.126;2022-11-28T06:06:27;30.40;;;13.60;;
20511;SDS011;10414;52.074;5.126;2022-11-28T06:08:55;26.20;;;13.40;;
20511;SDS011;10414;52.074;5.126;2022-11-28T06:11:23;25.25;;;12.98;;
20511;SDS011;10414;52.074;5.126;2022-11-28T06:13:51;24.67;;;13.05;;
20511;SDS011;10414;52.074;5.126;2022-11-28T06:16:20;29.73;;;13.85;;
20511;SDS011;10414;52.074;5.126;2022-11-28T06:18:50;26.25;;;13.40;;
20511;SDS011;10414;52.074;5.126;2022-11-28T06:21:18;27.42;;;13.35;;
20511;SDS011;10414;52.074;5.126;2022-11-28T06:23:46;30.00;;;14.50;;
20511;SDS011;10414;52.074;5.126;2022-11-28T06:26:14;28.77;;;13.65;;
20511;SDS011;10414;52.074;5.126;2022-11-28T06:28:43;32.17;;;14.57;;
20511;SDS011;10414;52.074;5.126;2022-11-28T06:31:10;35.80;;;15.50;;
20511;SDS011;10414;52.074;5.126;2022-11-28T06:33:38;33.25;;;15.27;;
20511;SDS011;10414;52.074;5.126;2022-11-28T06:36:08;32.38;;;15.43;;
20511;SDS011;10414;52.074;5.126;2022-11-28T06:38:39;35.50;;;16.23;;
20511;SDS011;10414;52.074;5.126;2022-11-28T06:41:07;30.50;;;15.02;;
20511;SDS011;10414;52.074;5.126;2022-11-28T06:43:35;34.58;;;15.48;;
20511;SDS011;10414;52.074;5.126;2022-11-28T06:46:02;37.88;;;16.65;;
20511;SDS011;10414;52.074;5.126;2022-11-28T06:48:29;38.25;;;16.00;;
20511;SDS011;10414;52.074;5.126;2022-11-28T06:51:02;39.03;;;17.45;;
20511;SDS011;10414;52.074;5.126;2022-11-28T06:53:30;40.22;;;17.27;;
20511;SDS011;10414;52.074;5.126;2022-11-28T06:56:03;32.58;;;14.80;;
20511;SDS011;10414;52.074;5.126;2022-11-28T06:58:32;35.60;;;15.98;;
20511;SDS011;10414;52.074;5.126;2022-11-28T07:01:07;41.90;;;17.45;;
20511;SDS011;10414;52.074;5.126;2022-11-28T07:03:38;37.90;;;16.23;;
20511;SDS011;10414;52.074;5.126;2022-11-28T07:06:10;38.85;;;15.88;;
20511;SDS011;10414;52.074;5.126;2022-11-28T07:08:38;41.80;;;18.60;;
20511;SDS011;10414;52.074;5.126;2022-11-28T07:11:06;40.97;;;16.80;;
20511;SDS011;10414;52.074;5.126;2022-11-28T07:13:35;36.13;;;15.80;;
20511;SDS011;10414;52.074;5.126;2022-11-28T07:16:07;37.97;;;17.77;;
20511;SDS011;10414;52.074;5.126;2022-11-28T07:18:38;40.83;;;17.75;;
20511;SDS011;10414;52.074;5.126;2022-11-28T07:21:05;43.40;;;17.85;;
20511;SDS011;10414;52.074;5.126;2022-11-28T07:23:33;39.20;;;18.15;;
20511;SDS011;10414;52.074;5.126;2022-11-28T07:26:03;39.65;;;16.73;;
20511;SDS011;10414;52.074;5.126;2022-11-28T07:28:35;45.92;;;18.08;;
20511;SDS011;10414;52.074;5.126;2022-11-28T07:31:02;43.70;;;17.77;;
20511;SDS011;10414;52.074;5.126;2022-11-28T07:33:31;43.67;;;17.30;;
20511;SDS011;10414;52.074;5.126;2022-11-28T07:36:00;48.42;;;19.88;;
20511;SDS011;10414;52.074;5.126;2022-11-28T07:38:34;45.42;;;18.27;;
20511;SDS011;10414;52.074;5.126;2022-11-28T07:41:03;38.92;;;16.83;;
20511;SDS011;10414;52.074;5.126;2022-11-28T07:43:32;47.70;;;18.02;;
20511;SDS011;10414;52.074;5.126;2022-11-28T07:46:01;48.22;;;18.20;;
20511;SDS011;10414;52.074;5.126;2022-11-28T07:48:29;45.97;;;17.98;;
20511;SDS011;10414;52.074;5.126;2022-11-28T07:50:59;47.50;;;18.13;;
20511;SDS011;10414;52.074;5.126;2022-11-28T07:53:30;49.53;;;19.75;;
20511;SDS011;10414;52.074;5.126;2022-11-28T07:56:01;46.00;;;18.65;;
20511;SDS011;10414;52.074;5.126;2022-11-28T07:58:28;49.20;;;19.25;;
20511;SDS011;10414;52.074;5.126;2022-11-28T08:00:58;46.15;;;18.42;;
20511;SDS011;10414;52.074;5.126;2022-11-28T08:03:26;47.00;;;18.95;;
20511;SDS011;10414;52.074;5.126;2022-11-28T08:05:53;50.60;;;19.40;;
20511;SDS011;10414;52.074;5.126;2022-11-28T08:08:25;51.80;;;19.98;;
20511;SDS011;10414;52.074;5.126;2022-11-28T08:10:55;48.22;;;18.80;;
20511;SDS011;10414;52.074;5.126;2022-11-28T08:13:24;53.85;;;19.55;;
20511;SDS011;10414;52.074;5.126;2022-11-28T08:15:51;48.30;;;19.15;;
20511;SDS011;10414;52.074;5.126;2022-11-28T08:18:18;57.55;;;20.08;;
20511;SDS011;10414;52.074;5.126;2022-11-28T08:20:47;54.78;;;20.30;;
20511;SDS011;10414;52.074;5.126;2022-11-28T08:23:16;48.97;;;19.05;;
20511;SDS011;10414;52.074;5.126;2022-11-28T08:25:43;53.33;;;20.27;;
20511;SDS011;10414;52.074;5.126;2022-11-28T08:28:09;52.70;;;20.42;;
20511;SDS011;10414;52.074;5.126;2022-11-28T08:30:45;51.00;;;20.63;;
20511;SDS011;10414;52.074;5.126;2022-11-28T08:33:12;52.92;;;21.75;;
20511;SDS011;10414;52.074;5.126;2022-11-28T08:35:39;54.50;;;20.42;;
20511;SDS011;10414;52.074;5.126;2022-11-28T08:38:06;54.42;;;20.83;;
20511;SDS011;10414;52.074;5.126;2022-11-28T08:40:33;60.28;;;20.83;;
20511;SDS011;10414;52.074;5.126;2022-11-28T08:43:09;62.40;;;20.60;;
20511;SDS011;10414;52.074;5.126;2022-11-28T08:45:37;63.85;;;22.20;;
20511;SDS011;10414;52.074;5.126;2022-11-28T08:48:05;62.53;;;21.90;;
20511;SDS011;10414;52.074;5.126;2022-11-28T08:50:32;61.95;;;22.60;;
20511;SDS011;10414;52.074;5.126;2022-11-28T08:53:01;60.08;;;21.50;;
20511;SDS011;10414;52.074;5.126;2022-11-28T08:55:28;61.63;;;21.52;;
20511;SDS011;10414;52.074;5.126;2022-11-28T08:57:54;65.38;;;23.20;;
20511;SDS011;10414;52.074;5.126;2022-11-28T09:00:21;63.15;;;23.50;;
20511;SDS011;10414;52.074;5.126;2022-11-28T09:02:48;65.70;;;22.48;;
20511;SDS011;10414;52.074;5.126;2022-11-28T09:05:16;63.58;;;21.48;;
20511;SDS011;10414;52.074;5.126;2022-11-28T09:07:43;59.90;;;20.98;;
20511;SDS011;10414;52.074;5.126;2022-11-28T09:10:10;60.13;;;22.00;;
20511;SDS011;10414;52.074;5.126;2022-11-28T09:12:39;64.57;;;23.55;;
20511;SDS011;10414;52.074;5.126;2022-11-28T09:15:07;66.07;;;22.50;;
20511;SDS011;10414;52.074;5.126;2022-11-28T09:17:34;63.58;;;22.50;;
20511;SDS011;10414;52.074;5.126;2022-11-28T09:20:02;68.60;;;22.33;;
20511;SDS011;10414;52.074;5.126;2022-11-28T09:22:34;66.88;;;20.98;;
20511;SDS011;10414;52.074;5.126;2022-11-28T09:25:01;70.82;;;23.88;;
20511;SDS011;10414;52.074;5.126;2022-11-28T09:27:34;56.55;;;21.63;;
20511;SDS011;10414;52.074;5.126;2022-11-28T09:30:04;73.13;;;22.45;;
20511;SDS011;10414;52.074;5.126;2022-11-28T09:32:32;63.22;;;22.13;;
20511;SDS011;10414;52.074;5.126;2022-11-28T09:34:59;71.95;;;22.42;;
20511;SDS011;10414;52.074;5.126;2022-11-28T09:37:26;68.43;;;22.80;;
20511;SDS011;10414;52.074;5.126;2022-11-28T09:39:54;67.47;;;24.70;;
20511;SDS011;10414;52.074;5.126;2022-11-28T09:42:22;64.28;;;23.33;;
20511;SDS011;10414;52.074;5.126;2022-11-28T09:44:56;75.53;;;24.17;;
20511;SDS011;10414;52.074;5.126;2022-11-28T09:49:54;76.40;;;22.92;;
20511;SDS011;10414;52.074;5.126;2022-11-28T09:52:26;66.38;;;23.27;;
20511;SDS011;10414;52.074;5.126;2022-11-28T09:55:09;69.18;;;23.08;;
20511;SDS011;10414;52.074;5.126;2022-11-28T09:57:44;72.68;;;22.45;;
20511;SDS011;10414;52.074;5.126;2022-11-28T10:00:20;67.70;;;22.15;;
20511;SDS011;10414;52.074;5.126;2022-11-28T10:02:56;70.80;;;21.55;;
20511;SDS011;10414;52.074;5.126;2022-11-28T10:05:41;73.18;;;23.45;;
20511;SDS011;10414;52.074;5.126;2022-11-28T10:08:16;65.10;;;22.30;;
20511;SDS011;10414;52.074;5.126;2022-11-28T10:10:53;67.55;;;21.80;;
20511;SDS011;10414;52.074;5.126;2022-11-28T10:13:31;70.78;;;22.70;;
20511;SDS011;10414;52.074;5.126;2022-11-28T10:16:07;74.65;;;22.25;;
20511;SDS011;10414;52.074;5.126;2022-11-28T10:18:38;72.90;;;22.50;;
20511;SDS011;10414;52.074;5.126;2022-11-28T10:21:18;66.90;;;21.23;;
20511;SDS011;10414;52.074;5.126;2022-11-28T10:23:50;66.28;;;19.60;;
20511;SDS011;10414;52.074;5.126;2022-11-28T10:26:25;59.80;;;20.35;;
20511;SDS011;10414;52.074;5.126;2022-11-28T10:28:58;63.40;;;21.70;;
20511;SDS011;10414;52.074;5.126;2022-11-28T10:31:29;70.78;;;22.02;;
20511;SDS011;10414;52.074;5.126;2022-11-28T10:34:01;61.33;;;21.23;;
20511;SDS011;10414;52.074;5.126;2022-11-28T10:36:32;67.93;;;21.98;;
20511;SDS011;10414;52.074;5.126;2022-11-28T10:39:15;62.83;;;21.70;;
20511;SDS011;10414;52.074;5.126;2022-11-28T10:41:46;63.42;;;21.88;;
20511;SDS011;10414;52.074;5.126;2022-11-28T10:44:37;55.85;;;19.75;;
20511;SDS011;10414;52.074;5.126;2022-11-28T10:47:13;61.22;;;20.90;;
20511;SDS011;10414;52.074;5.126;2022-11-28T10:49:47;56.88;;;19.50;;
20511;SDS011;10414;52.074;5.126;2022-11-28T10:52:20;61.92;;;21.20;;
20511;SDS011;10414;52.074;5.126;2022-11-28T10:54:59;51.22;;;19.15;;
20511;SDS011;10414;52.074;5.126;2022-11-28T10:57:37;51.65;;;18.45;;
20511;SDS011;10414;52.074;5.126;2022-11-28T11:00:11;52.60;;;18.02;;
20511;SDS011;10414;52.074;5.126;2022-11-28T11:02:40;48.15;;;19.67;;
20511;SDS011;10414;52.074;5.126;2022-11-28T11:05:11;51.55;;;18.55;;
20511;SDS011;10414;52.074;5.126;2022-11-28T11:07:42;50.67;;;19.08;;
20511;SDS011;10414;52.074;5.126;2022-11-28T11:10:13;49.70;;;18.20;;
20511;SDS011;10414;52.074;5.126;2022-11-28T11:12:42;44.08;;;17.50;;
20511;SDS011;10414;52.074;5.126;2022-11-28T11:15:13;46.78;;;18.38;;
20511;SDS011;10414;52.074;5.126;2022-11-28T11:17:43;41.85;;;17.90;;
20511;SDS011;10414;52.074;5.126;2022-11-28T11:20:26;50.75;;;18.83;;
20511;SDS011;10414;52.074;5.126;2022-11-28T11:23:01;42.40;;;15.95;;
20511;SDS011;10414;52.074;5.126;2022-11-28T11:25:36;47.70;;;16.25;;
20511;SDS011;10414;52.074;5.126;2022-11-28T11:28:17;42.47;;;16.50;;
20511;SDS011;10414;52.074;5.126;2022-11-28T11:30:59;39.88;;;15.43;;
20511;SDS011;10414;52.074;5.126;2022-11-28T11:33:29;44.35;;;16.48;;
20511;SDS011;10414;52.074;5.126;2022-11-28T11:35:59;56.55;;;22.95;;
20511;SDS011;10414;52.074;5.126;2022-11-28T11:38:29;44.30;;;18.35;;
20511;SDS011;10414;52.074;5.126;2022-11-28T11:40:58;38.15;;;15.63;;
20511;SDS011;10414;52.074;5.126;2022-11-28T11:43:49;40.75;;;16.48;;
20511;SDS011;10414;52.074;5.126;2022-11-28T11:46:16;44.78;;;17.80;;
20511;SDS011;10414;52.074;5.126;2022-11-28T11:48:47;42.72;;;16.23;;
20511;SDS011;10414;52.074;5.126;2022-11-28T11:51:22;43.42;;;16.95;;
20511;SDS011;10414;52.074;5.126;2022-11-28T11:54:00;44.85;;;17.75;;
20511;SDS011;10414;52.074;5.126;2022-11-28T11:56:29;43.95;;;17.10;;
20511;SDS011;10414;52.074;5.126;2022-11-28T11:59:02;44.85;;;17.30;;
20511;SDS011;10414;52.074;5.126;2022-11-28T12:01:32;44.40;;;17.08;;
20511;SDS011;10414;52.074;5.126;2022-11-28T12:04:02;44.63;;;18.35;;
20511;SDS011;10414;52.074;5.126;2022-11-28T12:06:31;37.67;;;16.48;;
20511;SDS011;10414;52.074;5.126;2022-11-28T12:09:06;45.97;;;18.67;;
20511;SDS011;10414;52.074;5.126;2022-11-28T12:11:42;40.60;;;16.80;;
20511;SDS011;10414;52.074;5.126;2022-11-28T12:14:23;42.35;;;16.98;;
20511;SDS011;10414;52.074;5.126;2022-11-28T12:16:55;41.75;;;17.95;;
20511;SDS011;10414;52.074;5.126;2022-11-28T12:19:48;44.38;;;17.23;;
20511;SDS011;10414;52.074;5.126;2022-11-28T12:22:27;41.88;;;17.58;;
20511;SDS011;10414;52.074;5.126;2022-11-28T12:25:02;48.00;;;19.38;;
20511;SDS011;10414;52.074;5.126;2022-11-28T12:27:44;44.17;;;18.88;;
20511;SDS011;10414;52.074;5.126;2022-11-28T12:30:25;45.38;;;17.63;;
20511;SDS011;10414;52.074;5.126;2022-11-28T12:33:06;41.80;;;18.08;;
20511;SDS011;10414;52.074;5.126;2022-11-28T12:35:47;45.00;;;18.55;;
20511;SDS011;10414;52.074;5.126;2022-11-28T12:38:22;42.53;;;17.48;;
20511;SDS011;10414;52.074;5.126;2022-11-28T12:41:05;41.33;;;17.77;;
20511;SDS011;10414;52.074;5.126;2022-11-28T12:43:49;46.08;;;18.38;;
20511;SDS011;10414;52.074;5.126;2022-11-28T12:46:25;41.13;;;16.60;;
20511;SDS011;10414;52.074;5.126;2022-11-28T12:49:07;41.60;;;16.67;;
20511;SDS011;10414;52.074;5.126;2022-11-28T12:51:42;41.95;;;17.08;;
20511;SDS011;10414;52.074;5.126;2022-11-28T12:54:25;45.97;;;16.80;;
20511;SDS011;10414;52.074;5.126;2022-11-28T12:57:21;43.17;;;16.73;;
20511;SDS011;10414;52.074;5.126;2022-11-28T13:00:02;42.70;;;18.00;;
20511;SDS011;10414;52.074;5.126;2022-11-28T13:02:34;42.03;;;15.70;;
20511;SDS011;10414;52.074;5.126;2022-11-28T13:05:16;37.80;;;15.77;;
20511;SDS011;10414;52.074;5.126;2022-11-28T13:08:02;39.88;;;15.85;;
20511;SDS011;10414;52.074;5.126;2022-11-28T13:10:52;35.85;;;14.57;;
20511;SDS011;10414;52.074;5.126;2022-11-28T13:13:33;39.08;;;15.35;;
20511;SDS011;10414;52.074;5.126;2022-11-28T13:16:07;42.65;;;15.93;;
20511;SDS011;10414;52.074;5.126;2022-11-28T13:18:43;43.15;;;15.95;;
20511;SDS011;10414;52.074;5.126;2022-11-28T13:21:18;47.97;;;17.63;;
20511;SDS011;10414;52.074;5.126;2022-11-28T13:23:57;42.88;;;17.27;;
20511;SDS011;10414;52.074;5.126;2022-11-28T13:26:32;44.50;;;16.83;;
20511;SDS011;10414;52.074;5.126;2022-11-28T13:29:22;43.30;;;17.35;;
20511;SDS011;10414;52.074;5.126;2022-11-28T13:31:58;48.92;;;18.05;;
20511;SDS011;10414;52.074;5.126;2022-11-28T13:34:34;43.20;;;17.55;;
20511;SDS011;10414;52.074;5.126;2022-11-28T13:37:07;43.70;;;17.50;;
20511;SDS011;10414;52.074;5.126;2022-11-28T13:39:38;46.17;;;18.42;;
20511;SDS011;10414;52.074;5.126;2022-11-28T13:44:58;49.67;;;17.42;;
20511;SDS011;10414;52.074;5.126;2022-11-28T13:47:29;44.55;;;17.77;;
20511;SDS011;10414;52.074;5.126;2022-11-28T13:53:18;49.33;;;18.48;;
20511;SDS011;10414;52.074;5.126;2022-11-28T13:55:52;57.17;;;17.95;;
20511;SDS011;10414;52.074;5.126;2022-11-28T13:58:48;56.67;;;19.17;;
20511;SDS011;10414;52.074;5.126;2022-11-28T14:01:17;54.33;;;19.58;;
20511;SDS011;10414;52.074;5.126;2022-11-28T14:03:46;51.70;;;20.20;;
20511;SDS011;10414;52.074;5.126;2022-11-28T14:06:18;56.10;;;20.17;;
20511;SDS011;10414;52.074;5.126;2022-11-28T14:08:48;57.92;;;21.08;;
20511;SDS011;10414;52.074;5.126;2022-11-28T14:11:30;60.25;;;19.45;;
20511;SDS011;10414;52.074;5.126;2022-11-28T14:14:13;53.58;;;18.70;;
20511;SDS011;10414;52.074;5.126;2022-11-28T14:16:54;49.42;;;19.27;;
20511;SDS011;10414;52.074;5.126;2022-11-28T14:19:37;50.20;;;19.75;;
20511;SDS011;10414;52.074;5.126;2022-11-28T14:22:18;55.72;;;18.88;;
20511;SDS011;10414;52.074;5.126;2022-11-28T14:24:55;56.38;;;19.73;;
20511;SDS011;10414;52.074;5.126;2022-11-28T14:27:27;51.38;;;18.45;;
20511;SDS011;10414;52.074;5.126;2022-11-28T14:32:32;55.67;;;18.92;;
20511;SDS011;10414;52.074;5.126;2022-11-28T14:35:02;55.88;;;20.80;;
20511;SDS011;10414;52.074;5.126;2022-11-28T14:43:29;49.07;;;18.47;;
20511;SDS011;10414;52.074;5.126;2022-11-28T14:54:33;48.63;;;18.02;;
20511;SDS011;10414;52.074;5.126;2022-11-28T14:57:01;48.40;;;18.15;;
20511;SDS011;10414;52.074;5.126;2022-11-28T14:59:36;53.83;;;19.10;;
20511;SDS011;10414;52.074;5.126;2022-11-28T15:02:07;47.83;;;17.50;;
20511;SDS011;10414;52.074;5.126;2022-11-28T15:05:14;44.83;;;18.17;;
20511;SDS011;10414;52.074;5.126;2022-11-28T15:10:48;52.92;;;20.00;;
20511;SDS011;10414;52.074;5.126;2022-11-28T15:13:25;49.83;;;17.92;;
20511;SDS011;10414;52.074;5.126;2022-11-28T15:16:02;49.60;;;17.58;;
20511;SDS011;10414;52.074;5.126;2022-11-28T15:18:31;53.67;;;18.95;;
20511;SDS011;10414;52.074;5.126;2022-11-28T15:21:01;56.03;;;19.05;;
20511;SDS011;10414;52.074;5.126;2022-11-28T15:23:31;54.55;;;18.42;;
20511;SDS011;10414;52.074;5.126;2022-11-28T15:26:00;50.92;;;16.98;;
20511;SDS011;10414;52.074;5.126;2022-11-28T15:28:28;58.05;;;17.75;;
20511;SDS011;10414;52.074;5.126;2022-11-28T15:31:00;48.40;;;16.52;;